Greenwood Lake, New Jersey
Current Conditions -  °F | °C
As of 6:53 PM on Tuesday 25 Nov 2014 (Local Time) from KFWN Reporting Station
Clear Clear  
Wind Chill: 38°   Ceiling: Unl
Heat Index: 38°   Visibility: 10mi
Dew Point: 29°   Wind: 0mph
Humidity: 70%   Direction: NA
Pressure: 30.06"   Gusts: NA
Location:  41.1652°N, 74.3769°W
Report Text: KFWN 252353Z AUTO 00000KT 10SM CLR 03/M02 A3006 RMK AO2 SLP181 T00331017 10117 20033 53024
Loading
Personal Weather Stations






























Interactive Weather Map New forecast layout! Learn more

10-Day Weather Forecast

Advertisements
Track Severe Weather on mobile